메인 페이지
METAR-TAF:

METAR-TAF

공항 :

Northwest Arkansas Regional Airport

Fayetteville, 아칸소, 미국

위도: 36-16-55N, 경도: 094-18-25W, 고도: 392m

현재 날씨관측

예보는 49분 전, 20:53시(UTC)에 발표되었습니다.
서북서16kt, 순간 최대 풍속 24kt
온도 29°C
습도 37%
기압 1011 hPa
시정: 16.1km
고도 7700ft 상공 구름 조금

METAR: KXNA 212053Z COR 29016G24KT 10SM FEW077 29/13 A2985 RMK AO2 RAB48 SLP093 P0000 60000 T02890133 56016

시각: 16:42 (21:42 UTC)

예보

예보는 4 시간 20분 전, 17:22시(UTC)에 발표되었습니다.
예보 대상 시간: 21일 18시부터 22일 18시까지 (UTC)
12kt, 순간 최대 풍속 17kt
시정: 10km
고도 3500ft 상공 구름 조금
22일 0100시부터 (UTC)
서남서4kt
시정: 10km
고도 25000ft 상공 구름 조금
22일 1200시부터 (UTC)
5kt
시정: 10km
고도 2500ft 상공 구름 많음

TAF: KXNA 211722Z 2118/2218 28012G17KT P6SM FEW035 FM220100 25004KT P6SM FEW250 FM221200 28005KT P6SM BKN025

4,000개 이상의 공항 관측 자료 및 예보 (METAR 및 TAF 보고).

지도상에서 검색 가능한 기상관측소가 노란 점과 빨간 점으로 표시되어 있습니다.

기상관측소 명을 보려면 표시 위로 마우스를 이동하세요.

날씨 관측과 예보를 보려면 클릭하세요.

지도 변경 : 확대하려면 엑스 표시가 있는 녹색 버튼, 축소하려면 빼기 표시가 있는 녹색 버튼, 다음 페이지의 지도를 보려면 녹색 화살표를 클릭하세요.


METAR-TAF: